createdAt,value
2023-01-17T00:02:17.676Z,96971.91
2023-01-17T00:05:04.944Z,96973.97
2023-01-17T00:07:52.200Z,96967.94
2023-01-17T00:10:25.295Z,96956.56
2023-01-17T00:12:56.055Z,96955.19
2023-01-17T00:15:25.386Z,96959.53
2023-01-17T00:17:53.996Z,96968.84
2023-01-17T00:20:43.303Z,96971.06
2023-01-17T00:23:38.782Z,96971.66
2023-01-17T00:26:12.212Z,96968.13
2023-01-17T00:28:41.745Z,96970.28
2023-01-17T00:31:13.952Z,96966.47
2023-01-17T00:33:42.360Z,96967.81
2023-01-17T00:36:11.207Z,96965.50
2023-01-17T00:38:39.892Z,96975.78
2023-01-17T00:41:10.511Z,96966.97
2023-01-17T00:43:57.154Z,96962.34
2023-01-17T00:46:44.472Z,96965.78
2023-01-17T00:49:31.170Z,96957.75
2023-01-17T00:52:17.981Z,96947.88
2023-01-17T00:55:04.587Z,96951.00
2023-01-17T00:57:51.240Z,96958.34
2023-01-17T01:00:38.112Z,96959.78
2023-01-17T01:03:31.215Z,96957.53
2023-01-17T01:06:17.534Z,96949.34
2023-01-17T01:09:04.350Z,96952.37
2023-01-17T01:11:50.958Z,96952.56
2023-01-17T01:14:37.753Z,96950.09
2023-01-17T01:17:24.327Z,96971.25
2023-01-17T01:20:11.107Z,96979.34
2023-01-17T01:22:57.913Z,96976.22
2023-01-17T01:25:44.672Z,96972.44
2023-01-17T01:28:32.913Z,96974.72
2023-01-17T01:31:25.660Z,96977.72
2023-01-17T01:33:53.954Z,96969.22
2023-01-17T01:36:22.417Z,96975.16
2023-01-17T01:38:50.558Z,96986.38
2023-01-17T01:41:18.588Z,96983.69
2023-01-17T01:43:49.946Z,96980.78
2023-01-17T01:46:25.923Z,96966.25
2023-01-17T01:49:00.053Z,96971.16
2023-01-17T01:51:39.244Z,96957.09
2023-01-17T01:54:14.874Z,96949.25
2023-01-17T01:56:43.183Z,96938.06
2023-01-17T01:59:14.356Z,96928.41
2023-01-17T02:01:42.694Z,96923.53
2023-01-17T02:04:11.281Z,96924.66
2023-01-17T02:06:42.632Z,96928.00
2023-01-17T02:09:12.824Z,96926.00
2023-01-17T02:11:41.643Z,96938.13
2023-01-17T02:14:14.679Z,96927.88
2023-01-17T02:17:41.582Z,96939.09
2023-01-17T02:20:28.060Z,96939.34
2023-01-17T02:23:12.443Z,96935.94
2023-01-17T02:26:10.770Z,96932.66
2023-01-17T02:29:20.407Z,96924.59
2023-01-17T02:32:39.251Z,96927.91
2023-01-17T02:35:20.681Z,96923.66
2023-01-17T02:38:15.844Z,96922.59
2023-01-17T02:40:54.036Z,96920.31
2023-01-17T02:43:23.924Z,96916.06
2023-01-17T02:45:52.308Z,96900.22
2023-01-17T02:48:24.185Z,96893.97
2023-01-17T02:51:20.087Z,96885.53
2023-01-17T02:54:11.054Z,96880.53
2023-01-17T02:57:14.209Z,96882.31
2023-01-17T02:59:54.196Z,96869.94
2023-01-17T03:02:28.688Z,96862.47
2023-01-17T03:05:11.039Z,96861.53
2023-01-17T03:07:40.483Z,96855.19
2023-01-17T03:10:09.028Z,96853.53
2023-01-17T03:12:38.987Z,96849.38
2023-01-17T03:15:13.115Z,96845.28
2023-01-17T03:17:45.801Z,96845.97
2023-01-17T03:20:14.286Z,96840.88
2023-01-17T03:22:42.297Z,96844.59
2023-01-17T03:25:10.212Z,96837.87
2023-01-17T03:27:38.606Z,96832.09
2023-01-17T03:30:07.612Z,96824.53
2023-01-17T03:32:35.619Z,96820.66
2023-01-17T03:35:04.043Z,96812.25
2023-01-17T03:37:31.973Z,96811.62
2023-01-17T03:39:59.892Z,96806.41
2023-01-17T03:42:28.130Z,96814.06
2023-01-17T03:44:56.156Z,96819.47
2023-01-17T03:47:24.126Z,96817.16
2023-01-17T03:49:52.446Z,96815.31
2023-01-17T03:52:20.325Z,96809.00
2023-01-17T03:54:48.752Z,96800.69
2023-01-17T03:57:16.937Z,96812.09
2023-01-17T03:59:46.263Z,96810.84
2023-01-17T04:02:14.418Z,96801.47
2023-01-17T04:04:42.933Z,96804.09
2023-01-17T04:07:10.836Z,96804.16
2023-01-17T04:09:38.701Z,96798.81
2023-01-17T04:12:07.233Z,96802.25
2023-01-17T04:14:35.592Z,96801.50
2023-01-17T04:17:04.397Z,96799.56
2023-01-17T04:19:34.963Z,96799.50
2023-01-17T04:22:03.622Z,96804.59
2023-01-17T04:24:31.579Z,96814.16
2023-01-17T04:27:00.023Z,96812.47
2023-01-17T04:29:27.898Z,96814.59
2023-01-17T04:31:55.970Z,96811.84
2023-01-17T04:34:24.317Z,96805.19
2023-01-17T04:36:52.233Z,96809.94
2023-01-17T04:39:20.184Z,96810.56
2023-01-17T04:41:48.476Z,96812.12
2023-01-17T04:44:16.314Z,96808.03
2023-01-17T04:46:44.205Z,96811.41
2023-01-17T04:49:12.558Z,96804.72
2023-01-17T04:51:40.632Z,96809.53
2023-01-17T04:54:08.512Z,96812.22
2023-01-17T04:56:36.903Z,96820.81
2023-01-17T04:59:04.881Z,96811.03
2023-01-17T05:01:32.966Z,96808.56
2023-01-17T05:04:01.246Z,96803.12
2023-01-17T05:06:29.322Z,96801.47
2023-01-17T05:08:57.374Z,96809.44
2023-01-17T05:11:25.638Z,96815.19
2023-01-17T05:13:53.589Z,96807.41
2023-01-17T05:16:21.524Z,96820.50
2023-01-17T05:18:53.672Z,96815.53
2023-01-17T05:21:22.557Z,96819.97
2023-01-17T05:23:51.088Z,96823.94
2023-01-17T05:26:19.241Z,96826.44
2023-01-17T05:28:47.261Z,96828.13
2023-01-17T05:31:15.576Z,96822.78
2023-01-17T05:33:43.659Z,96824.56
2023-01-17T05:36:11.875Z,96823.84
2023-01-17T05:38:40.119Z,96830.81
2023-01-17T05:41:07.933Z,96842.12
2023-01-17T05:43:35.841Z,96846.31
2023-01-17T05:46:04.204Z,96848.75
2023-01-17T05:48:32.261Z,96851.56
2023-01-17T05:51:01.765Z,96857.81
2023-01-17T05:53:30.152Z,96864.47
2023-01-17T05:55:57.969Z,96871.81
2023-01-17T05:58:26.047Z,96874.72
2023-01-17T06:00:56.064Z,96876.03
2023-01-17T06:03:25.039Z,96875.19
2023-01-17T06:05:53.353Z,96887.66
2023-01-17T06:08:21.742Z,96890.91
2023-01-17T06:10:50.182Z,96893.66
2023-01-17T06:13:22.087Z,96896.50
2023-01-17T06:15:50.437Z,96896.50
2023-01-17T06:18:19.070Z,96899.94
2023-01-17T06:20:53.072Z,96900.56
2023-01-17T06:23:22.263Z,96904.56
2023-01-17T06:25:51.811Z,96893.31
2023-01-17T06:28:21.943Z,96900.50
2023-01-17T06:30:50.337Z,96909.75
2023-01-17T06:33:18.334Z,96909.13
2023-01-17T06:35:54.128Z,96922.97
2023-01-17T06:38:22.373Z,96921.63
2023-01-17T06:40:50.295Z,96937.44
2023-01-17T06:43:18.257Z,96938.66
2023-01-17T06:45:46.565Z,96939.56
2023-01-17T06:48:14.564Z,96944.97
2023-01-17T06:50:42.550Z,96949.66
2023-01-17T06:53:11.011Z,96953.19
2023-01-17T06:55:40.564Z,96962.69
2023-01-17T06:58:10.460Z,96970.06
2023-01-17T07:00:40.749Z,96969.47
2023-01-17T07:03:20.329Z,96967.50
2023-01-17T07:05:49.043Z,96977.22
2023-01-17T07:08:18.049Z,96987.62
2023-01-17T07:10:47.073Z,96990.00
2023-01-17T07:13:15.537Z,96990.03
2023-01-17T07:15:43.435Z,96996.53
2023-01-17T07:18:11.393Z,96992.41
2023-01-17T07:20:39.645Z,97001.84
2023-01-17T07:23:09.693Z,97009.00
2023-01-17T07:25:37.871Z,97014.06
2023-01-17T07:28:06.193Z,97017.19
2023-01-17T07:30:35.322Z,97025.19
2023-01-17T07:33:03.404Z,97028.16
2023-01-17T07:35:31.805Z,97023.09
2023-01-17T07:37:59.833Z,97036.56
2023-01-17T07:40:28.340Z,97045.75
2023-01-17T07:43:02.877Z,97052.34
2023-01-17T07:45:33.249Z,97067.69
2023-01-17T07:48:01.637Z,97073.53
2023-01-17T07:50:29.553Z,97075.94
2023-01-17T07:52:57.462Z,97079.34
2023-01-17T07:55:25.721Z,97084.41
2023-01-17T07:57:57.392Z,97081.87
2023-01-17T08:00:31.253Z,97085.00
2023-01-17T08:03:01.422Z,97089.84
2023-01-17T08:05:31.170Z,97094.34
2023-01-17T08:07:59.495Z,97094.31
2023-01-17T08:10:27.522Z,97090.53
2023-01-17T08:12:55.712Z,97089.53
2023-01-17T08:15:26.736Z,97096.94
2023-01-17T08:17:54.752Z,97098.81
2023-01-17T08:20:22.783Z,97100.97
2023-01-17T08:22:55.722Z,97094.84
2023-01-17T08:25:25.505Z,97105.53
2023-01-17T08:27:57.685Z,97103.84
2023-01-17T08:30:26.049Z,97112.78
2023-01-17T08:32:54.681Z,97114.97
2023-01-17T08:35:22.892Z,97124.66
2023-01-17T08:37:56.328Z,97129.91
2023-01-17T08:40:24.956Z,97127.91
2023-01-17T08:42:57.047Z,97129.09
2023-01-17T08:45:25.526Z,97133.06
2023-01-17T08:47:54.111Z,97133.13
2023-01-17T08:50:22.177Z,97144.69
2023-01-17T08:52:51.415Z,97138.62
2023-01-17T08:55:19.658Z,97138.72
2023-01-17T08:57:48.062Z,97125.47
2023-01-17T09:00:16.786Z,97126.47
2023-01-17T09:02:44.728Z,97122.44
2023-01-17T09:05:13.782Z,97121.53
2023-01-17T09:07:42.163Z,97138.41
2023-01-17T09:10:11.106Z,97145.75
2023-01-17T09:12:40.651Z,97138.59
2023-01-17T09:15:11.372Z,97142.53
2023-01-17T09:17:39.293Z,97146.22
2023-01-17T09:20:08.147Z,97147.59
2023-01-17T09:22:37.884Z,97147.53
2023-01-17T09:25:09.239Z,97145.16
2023-01-17T09:30:05.354Z,97155.97
2023-01-17T09:32:35.381Z,97161.56
2023-01-17T09:35:09.003Z,97172.28
2023-01-17T09:37:38.256Z,97174.81
2023-01-17T09:40:07.596Z,97175.22
2023-01-17T09:42:38.471Z,97183.59
2023-01-17T09:45:17.405Z,97188.81
2023-01-17T09:47:53.355Z,97197.69
2023-01-17T09:50:21.957Z,97199.56
2023-01-17T09:52:50.478Z,97200.69
2023-01-17T09:55:21.364Z,97199.66
2023-01-17T09:58:31.210Z,97200.28
2023-01-17T10:00:59.380Z,97219.63
2023-01-17T10:03:44.514Z,97223.28
2023-01-17T10:06:43.347Z,97224.91
2023-01-17T10:09:46.881Z,97224.97
2023-01-17T10:12:41.414Z,97221.16
2023-01-17T10:15:47.201Z,97222.12
2023-01-17T10:18:30.736Z,97222.69
2023-01-17T10:21:14.039Z,97223.88
2023-01-17T10:24:11.103Z,97215.38
2023-01-17T10:26:41.719Z,97213.22
2023-01-17T10:29:15.922Z,97215.72
2023-01-17T10:31:55.515Z,97219.94
2023-01-17T10:34:35.160Z,97206.88
2023-01-17T10:37:28.298Z,97204.50
2023-01-17T10:39:58.703Z,97206.31
2023-01-17T10:42:32.272Z,97190.47
2023-01-17T10:45:06.714Z,97186.19
2023-01-17T10:47:37.533Z,97185.16
2023-01-17T10:50:06.051Z,97181.63
2023-01-17T10:52:37.621Z,97189.16
2023-01-17T10:55:49.139Z,97179.03
2023-01-17T10:58:17.769Z,97176.84
2023-01-17T11:00:48.920Z,97168.63
2023-01-17T11:03:22.367Z,97164.44
2023-01-17T11:06:25.391Z,97161.62
2023-01-17T11:08:55.139Z,97148.66
2023-01-17T11:11:32.169Z,97149.87
2023-01-17T11:14:08.193Z,97153.62
2023-01-17T11:16:37.769Z,97145.50
2023-01-17T11:19:36.261Z,97145.81
2023-01-17T11:22:08.401Z,97134.59
2023-01-17T11:24:42.432Z,97123.53
2023-01-17T11:27:28.025Z,97123.50
2023-01-17T11:30:20.743Z,97125.09
2023-01-17T11:33:30.141Z,97111.66
2023-01-17T11:35:59.417Z,97113.56
2023-01-17T11:38:27.780Z,97097.19
2023-01-17T11:41:15.985Z,97096.94
2023-01-17T11:44:00.457Z,97092.97
2023-01-17T11:46:30.675Z,97111.47
2023-01-17T11:49:02.540Z,97110.41
2023-01-17T11:51:33.188Z,97107.75
2023-01-17T11:54:16.905Z,97123.31
2023-01-17T11:56:46.627Z,97121.13
2023-01-17T11:59:30.310Z,97132.06
2023-01-17T12:02:17.756Z,97134.25
2023-01-17T12:04:52.535Z,97135.22
2023-01-17T12:08:03.610Z,97144.19
2023-01-17T12:10:42.451Z,97135.56
2023-01-17T12:13:35.606Z,97132.81
2023-01-17T12:16:31.395Z,97138.34
2023-01-17T12:19:28.799Z,97144.25
2023-01-17T12:22:04.531Z,97138.91
2023-01-17T12:24:45.924Z,97141.72
2023-01-17T12:27:21.577Z,97131.31
2023-01-17T12:30:31.113Z,97125.16
2023-01-17T12:33:46.898Z,97125.22
2023-01-17T12:36:31.978Z,97130.50
2023-01-17T12:39:18.177Z,97131.06
2023-01-17T12:41:57.848Z,97126.91
2023-01-17T12:45:06.221Z,97126.38
2023-01-17T12:47:45.565Z,97131.88
2023-01-17T12:50:29.241Z,97127.31
2023-01-17T12:53:19.598Z,97117.09
2023-01-17T12:56:09.304Z,97107.66
2023-01-17T12:58:49.151Z,97115.28
2023-01-17T13:01:26.152Z,97112.87
2023-01-17T13:04:19.954Z,97117.25
2023-01-17T13:06:59.137Z,97107.47
2023-01-17T13:09:39.168Z,97109.78
2023-01-17T13:12:13.000Z,97119.06
2023-01-17T13:14:41.491Z,97121.72
2023-01-17T13:17:18.251Z,97125.16
2023-01-17T13:19:56.462Z,97125.94
2023-01-17T13:22:27.360Z,97128.44
2023-01-17T13:25:26.728Z,97125.97
2023-01-17T13:27:56.080Z,97123.56
2023-01-17T13:30:51.554Z,97121.81
2023-01-17T13:33:52.231Z,97112.13
2023-01-17T13:37:06.567Z,97103.44
2023-01-17T13:39:37.612Z,97103.81
2023-01-17T13:42:30.504Z,97093.09
2023-01-17T13:44:58.981Z,97095.13
2023-01-17T13:47:38.559Z,97098.81
2023-01-17T13:50:38.776Z,97083.25
2023-01-17T13:53:36.552Z,97089.19
2023-01-17T13:56:20.031Z,97079.59
2023-01-17T13:58:52.119Z,97068.34
2023-01-17T14:01:23.742Z,97069.53
2023-01-17T14:03:52.409Z,97057.44
2023-01-17T14:06:45.126Z,97048.59
2023-01-17T14:09:15.018Z,97038.34
2023-01-17T14:12:10.881Z,97028.47
2023-01-17T14:14:44.611Z,97024.94
2023-01-17T14:17:28.401Z,97021.69
2023-01-17T14:20:26.660Z,97023.00
2023-01-17T14:23:03.732Z,97016.69
2023-01-17T14:25:39.687Z,97016.28
2023-01-17T14:28:31.649Z,97004.09
2023-01-17T14:31:10.466Z,96995.06
2023-01-17T14:33:42.713Z,96990.56
2023-01-17T14:36:25.218Z,96984.19
2023-01-17T14:38:53.509Z,96979.84
2023-01-17T14:41:28.077Z,96985.44
2023-01-17T14:43:56.616Z,96985.63
2023-01-17T14:46:32.619Z,96969.28
2023-01-17T14:49:02.880Z,96973.47
2023-01-17T14:51:35.409Z,96960.19
2023-01-17T14:54:13.928Z,96961.75
2023-01-17T14:56:43.710Z,96956.75
2023-01-17T14:59:22.147Z,96959.84
2023-01-17T15:02:06.287Z,96961.94
2023-01-17T15:04:39.897Z,96969.03
2023-01-17T15:07:16.708Z,96961.28
2023-01-17T15:09:45.384Z,96960.19
2023-01-17T15:12:14.801Z,96966.38
2023-01-17T15:14:46.910Z,96965.31
2023-01-17T15:17:19.669Z,96960.19
2023-01-17T15:19:51.693Z,96966.94
2023-01-17T15:22:20.411Z,96959.56
2023-01-17T15:24:49.566Z,96956.81
2023-01-17T15:27:22.087Z,96953.31
2023-01-17T15:29:50.594Z,96952.28
2023-01-17T15:32:23.923Z,96941.12
2023-01-17T15:34:52.671Z,96939.47
2023-01-17T15:37:54.195Z,96941.38
2023-01-17T15:40:24.955Z,96934.19
2023-01-17T15:43:01.372Z,96938.19
2023-01-17T15:45:33.937Z,96933.94
2023-01-17T15:48:46.706Z,96924.59
2023-01-17T15:51:30.779Z,96924.03
2023-01-17T15:54:00.697Z,96910.91
2023-01-17T15:56:33.647Z,96914.97
2023-01-17T15:59:22.899Z,96913.31
2023-01-17T16:01:58.510Z,96908.41
2023-01-17T16:04:29.890Z,96908.41
2023-01-17T16:07:19.944Z,96899.44
2023-01-17T16:09:49.195Z,96903.12
2023-01-17T16:12:17.871Z,96898.00
2023-01-17T16:15:06.192Z,96906.91
2023-01-17T16:17:36.432Z,96903.59
2023-01-17T16:20:07.660Z,96898.47
2023-01-17T16:22:36.204Z,96888.47
2023-01-17T16:25:22.105Z,96891.53
2023-01-17T16:27:53.924Z,96885.09
2023-01-17T16:30:22.643Z,96882.06
2023-01-17T16:32:51.394Z,96874.44
2023-01-17T16:35:23.779Z,96873.25
2023-01-17T16:37:54.662Z,96874.47
2023-01-17T16:40:26.771Z,96872.31
2023-01-17T16:42:59.190Z,96867.38
2023-01-17T16:45:28.983Z,96861.59
2023-01-17T16:47:57.629Z,96859.69
2023-01-17T16:50:25.989Z,96850.59
2023-01-17T16:52:55.101Z,96845.09
2023-01-17T16:55:25.238Z,96839.78
2023-01-17T16:57:57.252Z,96849.47
2023-01-17T17:00:27.042Z,96843.44
2023-01-17T17:02:55.207Z,96844.22
2023-01-17T17:05:23.345Z,96842.56
2023-01-17T17:07:53.121Z,96841.28
2023-01-17T17:10:25.407Z,96837.19
2023-01-17T17:12:54.262Z,96827.56
2023-01-17T17:15:22.503Z,96827.41
2023-01-17T17:17:51.408Z,96824.06
2023-01-17T17:20:19.989Z,96816.09
2023-01-17T17:22:52.038Z,96810.03
2023-01-17T17:25:20.541Z,96814.06
2023-01-17T17:27:48.618Z,96803.41
2023-01-17T17:30:18.843Z,96795.75
2023-01-17T17:32:48.878Z,96788.78
2023-01-17T17:35:17.129Z,96798.66
2023-01-17T17:37:45.259Z,96794.53
2023-01-17T17:40:13.759Z,96786.75
2023-01-17T17:42:43.321Z,96780.44
2023-01-17T17:45:11.592Z,96775.75
2023-01-17T17:47:40.156Z,96768.00
2023-01-17T17:50:09.055Z,96768.66
2023-01-17T17:52:37.212Z,96757.19
2023-01-17T17:55:06.226Z,96742.06
2023-01-17T17:57:34.305Z,96737.50
2023-01-17T18:00:03.023Z,96729.84
2023-01-17T18:02:35.752Z,96713.88
2023-01-17T18:05:04.824Z,96700.97
2023-01-17T18:07:33.151Z,96696.03
2023-01-17T18:10:01.295Z,96693.28
2023-01-17T18:12:29.867Z,96690.06
2023-01-17T18:14:57.933Z,96689.59
2023-01-17T18:17:26.121Z,96679.47
2023-01-17T18:19:54.996Z,96668.47
2023-01-17T18:22:23.143Z,96658.97
2023-01-17T18:24:51.298Z,96656.06
2023-01-17T18:27:20.212Z,96648.78
2023-01-17T18:29:49.512Z,96648.56
2023-01-17T18:32:17.524Z,96642.00
2023-01-17T18:34:46.129Z,96647.66
2023-01-17T18:37:14.324Z,96637.31
2023-01-17T18:39:43.205Z,96637.03
2023-01-17T18:42:12.282Z,96625.25
2023-01-17T18:44:40.732Z,96616.56
2023-01-17T18:47:11.162Z,96612.59
2023-01-17T18:49:39.711Z,96614.78
2023-01-17T18:52:09.481Z,96608.19
2023-01-17T18:54:37.572Z,96597.47
2023-01-17T18:57:06.088Z,96599.47
2023-01-17T18:59:34.234Z,96592.72
2023-01-17T19:02:02.290Z,96588.31
2023-01-17T19:04:34.221Z,96578.06
2023-01-17T19:07:02.324Z,96570.38
2023-01-17T19:09:32.432Z,96571.50
2023-01-17T19:12:00.543Z,96562.19
2023-01-17T19:14:28.759Z,96563.81
2023-01-17T19:16:57.792Z,96549.47
2023-01-17T19:19:25.919Z,96544.81
2023-01-17T19:21:54.260Z,96549.69
2023-01-17T19:24:22.752Z,96545.69
2023-01-17T19:26:54.323Z,96526.84
2023-01-17T19:29:22.881Z,96510.94
2023-01-17T19:31:51.023Z,96504.44
2023-01-17T19:34:20.480Z,96494.91
2023-01-17T19:36:49.019Z,96482.63
2023-01-17T19:39:17.165Z,96479.84
2023-01-17T19:41:45.679Z,96464.69
2023-01-17T19:44:15.105Z,96463.25
2023-01-17T19:46:44.499Z,96451.69
2023-01-17T19:49:12.673Z,96440.44
2023-01-17T19:51:41.141Z,96442.25
2023-01-17T19:54:09.392Z,96440.13
2023-01-17T19:56:38.729Z,96447.34
2023-01-17T19:59:09.061Z,96428.16
2023-01-17T20:01:37.480Z,96439.72
2023-01-17T20:04:06.060Z,96434.16
2023-01-17T20:06:36.025Z,96440.25
2023-01-17T20:09:05.595Z,96429.47
2023-01-17T20:11:34.443Z,96431.59
2023-01-17T20:14:03.566Z,96430.34
2023-01-17T20:16:32.737Z,96433.28
2023-01-17T20:19:03.022Z,96437.41
2023-01-17T20:21:31.836Z,96433.13
2023-01-17T20:24:03.445Z,96440.06
2023-01-17T20:26:36.498Z,96444.50
2023-01-17T20:29:12.542Z,96423.16
2023-01-17T20:31:41.745Z,96422.75
2023-01-17T20:34:12.364Z,96424.00
2023-01-17T20:36:44.623Z,96418.87
2023-01-17T20:39:14.743Z,96431.97
2023-01-17T20:41:45.853Z,96418.41
2023-01-17T20:44:15.651Z,96422.38
2023-01-17T20:46:43.853Z,96401.56
2023-01-17T20:49:15.583Z,96398.34
2023-01-17T20:51:45.465Z,96387.87
2023-01-17T20:54:16.411Z,96361.84
2023-01-17T20:56:47.696Z,96373.47
2023-01-17T20:59:18.792Z,96355.00
2023-01-17T21:01:47.590Z,96342.47
2023-01-17T21:04:16.924Z,96342.69
2023-01-17T21:06:45.599Z,96345.16
2023-01-17T21:09:15.516Z,96338.28
2023-01-17T21:11:43.842Z,96324.50
2023-01-17T21:14:12.071Z,96323.75
2023-01-17T21:16:40.778Z,96321.44
2023-01-17T21:19:12.293Z,96313.78
2023-01-17T21:21:41.144Z,96315.47
2023-01-17T21:24:09.372Z,96311.44
2023-01-17T21:26:39.062Z,96313.41
2023-01-17T21:29:08.358Z,96299.78
2023-01-17T21:31:37.054Z,96291.81
2023-01-17T21:34:07.649Z,96286.31
2023-01-17T21:36:41.323Z,96277.50
2023-01-17T21:39:18.523Z,96274.41
2023-01-17T21:41:49.750Z,96276.66
2023-01-17T21:44:20.616Z,96276.81
2023-01-17T21:46:55.113Z,96283.91
2023-01-17T21:49:24.243Z,96285.12
2023-01-17T21:51:55.800Z,96291.47
2023-01-17T21:54:46.717Z,96293.97
2023-01-17T21:57:40.030Z,96279.84
2023-01-17T22:00:10.838Z,96278.72
2023-01-17T22:02:40.311Z,96285.22
2023-01-17T22:05:09.829Z,96276.53
2023-01-17T22:07:39.285Z,96278.94
2023-01-17T22:10:07.866Z,96267.25
2023-01-17T22:12:36.351Z,96259.34
2023-01-17T22:15:04.890Z,96252.00
2023-01-17T22:17:33.130Z,96255.41
2023-01-17T22:20:01.613Z,96255.97
2023-01-17T22:22:32.836Z,96243.31
2023-01-17T22:25:01.300Z,96236.34
2023-01-17T22:27:29.864Z,96242.38
2023-01-17T22:29:58.092Z,96253.63
2023-01-17T22:32:26.550Z,96261.34
2023-01-17T22:34:54.659Z,96254.41
2023-01-17T22:37:22.779Z,96266.09
2023-01-17T22:39:51.211Z,96276.16
2023-01-17T22:42:19.174Z,96289.97
2023-01-17T22:44:47.979Z,96294.19
2023-01-17T22:47:16.351Z,96296.75
2023-01-17T22:49:44.393Z,96298.88
2023-01-17T22:52:12.438Z,96286.44
2023-01-17T22:54:40.917Z,96283.22
2023-01-17T22:57:08.896Z,96282.47
2023-01-17T22:59:36.937Z,96285.16
2023-01-17T23:02:05.321Z,96295.31
2023-01-17T23:04:33.412Z,96303.09
2023-01-17T23:07:01.389Z,96320.00
2023-01-17T23:09:29.953Z,96323.66
2023-01-17T23:11:58.126Z,96326.09
2023-01-17T23:14:55.980Z,96323.44
2023-01-17T23:17:43.672Z,96311.78
2023-01-17T23:20:12.112Z,96310.69
2023-01-17T23:22:40.641Z,96319.97
2023-01-17T23:25:11.316Z,96329.19
2023-01-17T23:28:04.054Z,96326.06
2023-01-17T23:30:37.699Z,96339.34
2023-01-17T23:33:08.081Z,96334.94
2023-01-17T23:35:42.185Z,96324.25
2023-01-17T23:38:29.016Z,96331.62
2023-01-17T23:41:22.998Z,96322.38
2023-01-17T23:43:55.722Z,96315.53
2023-01-17T23:46:25.630Z,96324.91
2023-01-17T23:48:55.235Z,96327.19
2023-01-17T23:51:23.859Z,96336.88
2023-01-17T23:53:57.608Z,96339.69
2023-01-17T23:56:26.236Z,96352.44
2023-01-17T23:58:54.291Z,96342.66
